sensor_id;sensor_type;location;lat;lon;timestamp;P1;durP1;ratioP1;P2;durP2;ratioP2
68212;SDS011;55035;47.792;8.724;2023-04-30T00:00:44;11.50;;;5.45;;
68212;SDS011;55035;47.792;8.724;2023-04-30T00:03:11;12.55;;;5.80;;
68212;SDS011;55035;47.792;8.724;2023-04-30T00:05:39;11.80;;;5.72;;
68212;SDS011;55035;47.792;8.724;2023-04-30T00:08:06;12.13;;;5.38;;
68212;SDS011;55035;47.792;8.724;2023-04-30T00:10:33;11.63;;;5.35;;
68212;SDS011;55035;47.792;8.724;2023-04-30T00:13:00;11.95;;;5.38;;
68212;SDS011;55035;47.792;8.724;2023-04-30T00:15:26;10.98;;;4.90;;
68212;SDS011;55035;47.792;8.724;2023-04-30T00:17:53;10.73;;;4.80;;
68212;SDS011;55035;47.792;8.724;2023-04-30T00:20:21;10.43;;;5.13;;
68212;SDS011;55035;47.792;8.724;2023-04-30T00:22:50;10.82;;;4.68;;
68212;SDS011;55035;47.792;8.724;2023-04-30T00:25:16;12.45;;;5.07;;
68212;SDS011;55035;47.792;8.724;2023-04-30T00:27:45;12.57;;;5.43;;
68212;SDS011;55035;47.792;8.724;2023-04-30T00:30:12;11.50;;;4.63;;
68212;SDS011;55035;47.792;8.724;2023-04-30T00:32:39;12.88;;;5.90;;
68212;SDS011;55035;47.792;8.724;2023-04-30T00:35:07;12.23;;;5.25;;
68212;SDS011;55035;47.792;8.724;2023-04-30T00:37:33;13.38;;;5.32;;
68212;SDS011;55035;47.792;8.724;2023-04-30T00:40:02;12.70;;;5.47;;
68212;SDS011;55035;47.792;8.724;2023-04-30T00:42:30;11.75;;;5.43;;
68212;SDS011;55035;47.792;8.724;2023-04-30T00:44:57;11.55;;;5.78;;
68212;SDS011;55035;47.792;8.724;2023-04-30T00:47:24;11.27;;;4.88;;
68212;SDS011;55035;47.792;8.724;2023-04-30T00:49:51;10.73;;;4.32;;
68212;SDS011;55035;47.792;8.724;2023-04-30T00:52:18;11.27;;;5.25;;
68212;SDS011;55035;47.792;8.724;2023-04-30T00:54:45;11.13;;;4.60;;
68212;SDS011;55035;47.792;8.724;2023-04-30T00:57:13;12.43;;;4.57;;
68212;SDS011;55035;47.792;8.724;2023-04-30T00:59:41;10.40;;;4.80;;
68212;SDS011;55035;47.792;8.724;2023-04-30T01:02:07;11.07;;;5.25;;
68212;SDS011;55035;47.792;8.724;2023-04-30T01:04:35;12.30;;;4.30;;
68212;SDS011;55035;47.792;8.724;2023-04-30T01:07:02;10.48;;;5.10;;
68212;SDS011;55035;47.792;8.724;2023-04-30T01:09:29;11.02;;;5.30;;
68212;SDS011;55035;47.792;8.724;2023-04-30T01:11:59;10.30;;;4.50;;
68212;SDS011;55035;47.792;8.724;2023-04-30T01:14:29;10.57;;;4.45;;
68212;SDS011;55035;47.792;8.724;2023-04-30T01:17:00;10.20;;;4.65;;
68212;SDS011;55035;47.792;8.724;2023-04-30T01:19:35;10.63;;;5.13;;
68212;SDS011;55035;47.792;8.724;2023-04-30T01:22:04;11.85;;;4.95;;
68212;SDS011;55035;47.792;8.724;2023-04-30T01:24:36;11.10;;;5.00;;
68212;SDS011;55035;47.792;8.724;2023-04-30T01:27:06;12.05;;;4.68;;
68212;SDS011;55035;47.792;8.724;2023-04-30T01:29:34;10.52;;;4.80;;
68212;SDS011;55035;47.792;8.724;2023-04-30T01:32:02;12.95;;;5.32;;
68212;SDS011;55035;47.792;8.724;2023-04-30T01:34:30;10.82;;;4.82;;
68212;SDS011;55035;47.792;8.724;2023-04-30T01:37:01;11.23;;;4.80;;
68212;SDS011;55035;47.792;8.724;2023-04-30T01:39:38;12.15;;;6.03;;
68212;SDS011;55035;47.792;8.724;2023-04-30T01:42:10;12.35;;;5.32;;
68212;SDS011;55035;47.792;8.724;2023-04-30T01:44:48;11.57;;;5.47;;
68212;SDS011;55035;47.792;8.724;2023-04-30T01:47:20;13.07;;;5.45;;
68212;SDS011;55035;47.792;8.724;2023-04-30T01:49:50;10.98;;;5.30;;
68212;SDS011;55035;47.792;8.724;2023-04-30T01:52:25;12.18;;;5.40;;
68212;SDS011;55035;47.792;8.724;2023-04-30T01:54:56;11.63;;;5.00;;
68212;SDS011;55035;47.792;8.724;2023-04-30T01:57:26;11.93;;;5.25;;
68212;SDS011;55035;47.792;8.724;2023-04-30T01:59:55;11.95;;;5.30;;
68212;SDS011;55035;47.792;8.724;2023-04-30T02:02:22;10.80;;;4.55;;
68212;SDS011;55035;47.792;8.724;2023-04-30T02:04:49;12.65;;;5.30;;
68212;SDS011;55035;47.792;8.724;2023-04-30T02:07:18;12.18;;;4.70;;
68212;SDS011;55035;47.792;8.724;2023-04-30T02:09:47;11.30;;;4.32;;
68212;SDS011;55035;47.792;8.724;2023-04-30T02:12:14;12.77;;;5.32;;
68212;SDS011;55035;47.792;8.724;2023-04-30T02:14:40;11.07;;;4.25;;
68212;SDS011;55035;47.792;8.724;2023-04-30T02:17:09;11.57;;;4.40;;
68212;SDS011;55035;47.792;8.724;2023-04-30T02:19:35;10.35;;;4.30;;
68212;SDS011;55035;47.792;8.724;2023-04-30T02:22:02;11.10;;;4.25;;
68212;SDS011;55035;47.792;8.724;2023-04-30T02:24:29;10.90;;;4.75;;
68212;SDS011;55035;47.792;8.724;2023-04-30T02:26:57;9.50;;;3.95;;
68212;SDS011;55035;47.792;8.724;2023-04-30T02:29:25;11.00;;;4.80;;
68212;SDS011;55035;47.792;8.724;2023-04-30T02:31:52;9.38;;;3.58;;
68212;SDS011;55035;47.792;8.724;2023-04-30T02:34:21;11.93;;;4.70;;
68212;SDS011;55035;47.792;8.724;2023-04-30T02:36:48;9.25;;;3.50;;
68212;SDS011;55035;47.792;8.724;2023-04-30T02:39:15;9.98;;;3.72;;
68212;SDS011;55035;47.792;8.724;2023-04-30T02:41:42;10.73;;;3.95;;
68212;SDS011;55035;47.792;8.724;2023-04-30T02:44:09;11.00;;;4.72;;
68212;SDS011;55035;47.792;8.724;2023-04-30T02:46:36;11.35;;;5.22;;
68212;SDS011;55035;47.792;8.724;2023-04-30T02:49:03;11.27;;;4.65;;
68212;SDS011;55035;47.792;8.724;2023-04-30T02:51:31;10.25;;;4.05;;
68212;SDS011;55035;47.792;8.724;2023-04-30T02:53:58;11.82;;;5.00;;
68212;SDS011;55035;47.792;8.724;2023-04-30T02:56:25;11.88;;;4.80;;
68212;SDS011;55035;47.792;8.724;2023-04-30T02:58:53;11.00;;;5.13;;
68212;SDS011;55035;47.792;8.724;2023-04-30T03:01:19;12.38;;;5.63;;
68212;SDS011;55035;47.792;8.724;2023-04-30T03:03:47;12.48;;;5.53;;
68212;SDS011;55035;47.792;8.724;2023-04-30T03:06:14;11.38;;;4.40;;
68212;SDS011;55035;47.792;8.724;2023-04-30T03:08:42;11.30;;;5.00;;
68212;SDS011;55035;47.792;8.724;2023-04-30T03:11:09;12.15;;;5.35;;
68212;SDS011;55035;47.792;8.724;2023-04-30T03:13:36;13.27;;;5.40;;
68212;SDS011;55035;47.792;8.724;2023-04-30T03:16:03;11.88;;;5.15;;
68212;SDS011;55035;47.792;8.724;2023-04-30T03:18:30;13.23;;;5.28;;
68212;SDS011;55035;47.792;8.724;2023-04-30T03:20:57;12.13;;;5.05;;
68212;SDS011;55035;47.792;8.724;2023-04-30T03:23:26;15.80;;;6.00;;
68212;SDS011;55035;47.792;8.724;2023-04-30T03:25:55;11.85;;;5.40;;
68212;SDS011;55035;47.792;8.724;2023-04-30T03:28:22;11.07;;;5.40;;
68212;SDS011;55035;47.792;8.724;2023-04-30T03:30:49;11.65;;;5.10;;
68212;SDS011;55035;47.792;8.724;2023-04-30T03:33:16;11.80;;;5.32;;
68212;SDS011;55035;47.792;8.724;2023-04-30T03:35:43;12.88;;;5.55;;
68212;SDS011;55035;47.792;8.724;2023-04-30T03:38:09;12.20;;;5.85;;
68212;SDS011;55035;47.792;8.724;2023-04-30T03:40:36;12.02;;;5.45;;
68212;SDS011;55035;47.792;8.724;2023-04-30T03:43:05;12.43;;;6.00;;
68212;SDS011;55035;47.792;8.724;2023-04-30T03:45:32;10.50;;;4.70;;
68212;SDS011;55035;47.792;8.724;2023-04-30T03:48:00;12.00;;;5.50;;
68212;SDS011;55035;47.792;8.724;2023-04-30T03:50:28;12.63;;;5.18;;
68212;SDS011;55035;47.792;8.724;2023-04-30T03:52:55;10.30;;;4.55;;
68212;SDS011;55035;47.792;8.724;2023-04-30T03:55:21;10.70;;;4.80;;
68212;SDS011;55035;47.792;8.724;2023-04-30T03:57:48;12.00;;;5.50;;
68212;SDS011;55035;47.792;8.724;2023-04-30T04:00:17;11.45;;;5.45;;
68212;SDS011;55035;47.792;8.724;2023-04-30T04:02:48;12.18;;;5.20;;
68212;SDS011;55035;47.792;8.724;2023-04-30T04:05:15;12.38;;;5.28;;
68212;SDS011;55035;47.792;8.724;2023-04-30T04:07:43;11.65;;;5.32;;
68212;SDS011;55035;47.792;8.724;2023-04-30T04:10:10;13.38;;;5.25;;
68212;SDS011;55035;47.792;8.724;2023-04-30T04:12:37;12.13;;;5.13;;
68212;SDS011;55035;47.792;8.724;2023-04-30T04:15:05;12.57;;;5.80;;
68212;SDS011;55035;47.792;8.724;2023-04-30T04:17:33;13.10;;;5.40;;
68212;SDS011;55035;47.792;8.724;2023-04-30T04:20:01;11.55;;;5.18;;
68212;SDS011;55035;47.792;8.724;2023-04-30T04:22:33;12.65;;;5.57;;
68212;SDS011;55035;47.792;8.724;2023-04-30T04:25:01;12.90;;;6.18;;
68212;SDS011;55035;47.792;8.724;2023-04-30T04:27:31;12.95;;;5.80;;
68212;SDS011;55035;47.792;8.724;2023-04-30T04:29:57;13.95;;;6.00;;
68212;SDS011;55035;47.792;8.724;2023-04-30T04:32:25;14.30;;;6.80;;
68212;SDS011;55035;47.792;8.724;2023-04-30T04:34:54;13.05;;;5.78;;
68212;SDS011;55035;47.792;8.724;2023-04-30T04:37:21;13.38;;;6.78;;
68212;SDS011;55035;47.792;8.724;2023-04-30T04:39:48;13.13;;;5.57;;
68212;SDS011;55035;47.792;8.724;2023-04-30T04:42:16;13.20;;;5.82;;
68212;SDS011;55035;47.792;8.724;2023-04-30T04:44:44;14.25;;;6.43;;
68212;SDS011;55035;47.792;8.724;2023-04-30T04:47:11;11.82;;;5.70;;
68212;SDS011;55035;47.792;8.724;2023-04-30T04:49:38;15.23;;;6.60;;
68212;SDS011;55035;47.792;8.724;2023-04-30T04:52:06;13.50;;;6.05;;
68212;SDS011;55035;47.792;8.724;2023-04-30T04:54:33;13.20;;;6.47;;
68212;SDS011;55035;47.792;8.724;2023-04-30T04:57:00;14.90;;;7.47;;
68212;SDS011;55035;47.792;8.724;2023-04-30T04:59:28;14.20;;;6.38;;
68212;SDS011;55035;47.792;8.724;2023-04-30T05:01:54;14.60;;;7.15;;
68212;SDS011;55035;47.792;8.724;2023-04-30T05:04:21;16.33;;;7.55;;
68212;SDS011;55035;47.792;8.724;2023-04-30T05:06:48;13.02;;;6.38;;
68212;SDS011;55035;47.792;8.724;2023-04-30T05:09:17;14.13;;;7.40;;
68212;SDS011;55035;47.792;8.724;2023-04-30T05:11:43;14.45;;;7.32;;
68212;SDS011;55035;47.792;8.724;2023-04-30T05:14:10;14.75;;;7.10;;
68212;SDS011;55035;47.792;8.724;2023-04-30T05:16:37;14.38;;;7.45;;
68212;SDS011;55035;47.792;8.724;2023-04-30T05:19:04;17.15;;;8.82;;
68212;SDS011;55035;47.792;8.724;2023-04-30T05:21:31;16.58;;;8.27;;
68212;SDS011;55035;47.792;8.724;2023-04-30T05:23:58;17.13;;;8.20;;
68212;SDS011;55035;47.792;8.724;2023-04-30T05:26:26;17.30;;;7.97;;
68212;SDS011;55035;47.792;8.724;2023-04-30T05:28:54;16.60;;;8.25;;
68212;SDS011;55035;47.792;8.724;2023-04-30T05:31:21;15.43;;;7.80;;
68212;SDS011;55035;47.792;8.724;2023-04-30T05:33:49;16.25;;;7.80;;
68212;SDS011;55035;47.792;8.724;2023-04-30T05:36:15;14.00;;;7.00;;
68212;SDS011;55035;47.792;8.724;2023-04-30T05:38:42;15.70;;;7.93;;
68212;SDS011;55035;47.792;8.724;2023-04-30T05:41:10;14.77;;;7.03;;
68212;SDS011;55035;47.792;8.724;2023-04-30T05:43:39;13.70;;;7.00;;
68212;SDS011;55035;47.792;8.724;2023-04-30T05:46:07;13.80;;;6.60;;
68212;SDS011;55035;47.792;8.724;2023-04-30T05:48:34;14.73;;;7.50;;
68212;SDS011;55035;47.792;8.724;2023-04-30T05:51:01;13.30;;;6.95;;
68212;SDS011;55035;47.792;8.724;2023-04-30T05:53:28;14.07;;;6.40;;
68212;SDS011;55035;47.792;8.724;2023-04-30T05:55:54;13.38;;;6.82;;
68212;SDS011;55035;47.792;8.724;2023-04-30T05:58:21;13.65;;;6.90;;
68212;SDS011;55035;47.792;8.724;2023-04-30T06:00:50;14.63;;;7.38;;
68212;SDS011;55035;47.792;8.724;2023-04-30T06:03:17;14.88;;;7.03;;
68212;SDS011;55035;47.792;8.724;2023-04-30T06:05:45;15.20;;;7.05;;
68212;SDS011;55035;47.792;8.724;2023-04-30T06:08:12;13.95;;;6.72;;
68212;SDS011;55035;47.792;8.724;2023-04-30T06:10:39;13.82;;;6.75;;
68212;SDS011;55035;47.792;8.724;2023-04-30T06:13:06;14.13;;;7.05;;
68212;SDS011;55035;47.792;8.724;2023-04-30T06:15:32;14.65;;;6.82;;
68212;SDS011;55035;47.792;8.724;2023-04-30T06:18:01;14.55;;;7.03;;
68212;SDS011;55035;47.792;8.724;2023-04-30T06:20:28;12.73;;;6.32;;
68212;SDS011;55035;47.792;8.724;2023-04-30T06:22:55;13.85;;;6.40;;
68212;SDS011;55035;47.792;8.724;2023-04-30T06:25:22;14.85;;;6.63;;
68212;SDS011;55035;47.792;8.724;2023-04-30T06:27:49;14.93;;;7.18;;
68212;SDS011;55035;47.792;8.724;2023-04-30T06:30:19;14.15;;;7.55;;
68212;SDS011;55035;47.792;8.724;2023-04-30T06:32:45;13.90;;;6.68;;
68212;SDS011;55035;47.792;8.724;2023-04-30T06:35:13;13.13;;;6.90;;
68212;SDS011;55035;47.792;8.724;2023-04-30T06:37:40;14.23;;;6.30;;
68212;SDS011;55035;47.792;8.724;2023-04-30T06:40:07;14.70;;;7.22;;
68212;SDS011;55035;47.792;8.724;2023-04-30T06:42:34;10.90;;;5.28;;
68212;SDS011;55035;47.792;8.724;2023-04-30T06:45:01;13.60;;;6.78;;
68212;SDS011;55035;47.792;8.724;2023-04-30T06:47:30;12.07;;;5.38;;
68212;SDS011;55035;47.792;8.724;2023-04-30T06:49:58;12.05;;;5.68;;
68212;SDS011;55035;47.792;8.724;2023-04-30T06:52:27;10.43;;;4.88;;
68212;SDS011;55035;47.792;8.724;2023-04-30T06:54:54;12.27;;;5.28;;
68212;SDS011;55035;47.792;8.724;2023-04-30T06:57:21;10.15;;;4.07;;
68212;SDS011;55035;47.792;8.724;2023-04-30T06:59:49;10.18;;;5.13;;
68212;SDS011;55035;47.792;8.724;2023-04-30T07:02:16;11.13;;;5.20;;
68212;SDS011;55035;47.792;8.724;2023-04-30T07:04:42;9.75;;;4.40;;
68212;SDS011;55035;47.792;8.724;2023-04-30T07:07:09;12.18;;;5.90;;
68212;SDS011;55035;47.792;8.724;2023-04-30T07:09:38;11.60;;;5.33;;
68212;SDS011;55035;47.792;8.724;2023-04-30T07:12:05;10.90;;;5.15;;
68212;SDS011;55035;47.792;8.724;2023-04-30T07:14:31;11.05;;;5.22;;
68212;SDS011;55035;47.792;8.724;2023-04-30T07:16:58;12.18;;;6.13;;
68212;SDS011;55035;47.792;8.724;2023-04-30T07:19:26;11.02;;;5.20;;
68212;SDS011;55035;47.792;8.724;2023-04-30T07:21:53;12.23;;;5.40;;
68212;SDS011;55035;47.792;8.724;2023-04-30T07:24:20;11.35;;;5.05;;
68212;SDS011;55035;47.792;8.724;2023-04-30T07:26:48;11.18;;;5.22;;
68212;SDS011;55035;47.792;8.724;2023-04-30T07:29:15;10.48;;;5.50;;
68212;SDS011;55035;47.792;8.724;2023-04-30T07:31:47;11.43;;;4.90;;
68212;SDS011;55035;47.792;8.724;2023-04-30T07:34:14;12.00;;;6.17;;
68212;SDS011;55035;47.792;8.724;2023-04-30T07:36:41;10.73;;;4.70;;
68212;SDS011;55035;47.792;8.724;2023-04-30T07:39:08;11.43;;;6.10;;
68212;SDS011;55035;47.792;8.724;2023-04-30T07:41:36;11.35;;;5.75;;
68212;SDS011;55035;47.792;8.724;2023-04-30T07:44:04;10.68;;;5.05;;
68212;SDS011;55035;47.792;8.724;2023-04-30T07:46:31;11.53;;;5.40;;
68212;SDS011;55035;47.792;8.724;2023-04-30T07:48:58;12.10;;;5.63;;
68212;SDS011;55035;47.792;8.724;2023-04-30T07:51:24;13.23;;;5.68;;
68212;SDS011;55035;47.792;8.724;2023-04-30T07:53:52;13.73;;;5.63;;
68212;SDS011;55035;47.792;8.724;2023-04-30T07:56:19;14.05;;;5.95;;
68212;SDS011;55035;47.792;8.724;2023-04-30T07:58:48;9.00;;;4.53;;
68212;SDS011;55035;47.792;8.724;2023-04-30T08:01:17;11.23;;;6.10;;
68212;SDS011;55035;47.792;8.724;2023-04-30T08:03:43;10.57;;;4.75;;
68212;SDS011;55035;47.792;8.724;2023-04-30T08:06:10;10.05;;;4.38;;
68212;SDS011;55035;47.792;8.724;2023-04-30T08:08:37;12.25;;;5.95;;
68212;SDS011;55035;47.792;8.724;2023-04-30T08:11:04;9.57;;;4.47;;
68212;SDS011;55035;47.792;8.724;2023-04-30T08:13:31;10.77;;;5.85;;
68212;SDS011;55035;47.792;8.724;2023-04-30T08:15:58;9.65;;;4.75;;
68212;SDS011;55035;47.792;8.724;2023-04-30T08:18:26;10.48;;;5.72;;
68212;SDS011;55035;47.792;8.724;2023-04-30T08:20:53;10.18;;;4.78;;
68212;SDS011;55035;47.792;8.724;2023-04-30T08:23:19;9.40;;;4.20;;
68212;SDS011;55035;47.792;8.724;2023-04-30T08:25:46;9.90;;;5.20;;
68212;SDS011;55035;47.792;8.724;2023-04-30T08:28:13;12.07;;;5.70;;
68212;SDS011;55035;47.792;8.724;2023-04-30T08:30:40;10.20;;;4.85;;
68212;SDS011;55035;47.792;8.724;2023-04-30T08:33:08;10.52;;;5.38;;
68212;SDS011;55035;47.792;8.724;2023-04-30T08:35:38;10.50;;;5.20;;
68212;SDS011;55035;47.792;8.724;2023-04-30T08:38:05;11.43;;;5.57;;
68212;SDS011;55035;47.792;8.724;2023-04-30T08:40:32;9.10;;;4.53;;
68212;SDS011;55035;47.792;8.724;2023-04-30T08:43:03;10.88;;;5.07;;
68212;SDS011;55035;47.792;8.724;2023-04-30T08:45:30;11.05;;;6.15;;
68212;SDS011;55035;47.792;8.724;2023-04-30T08:47:57;9.93;;;4.70;;
68212;SDS011;55035;47.792;8.724;2023-04-30T08:50:24;8.43;;;4.55;;
68212;SDS011;55035;47.792;8.724;2023-04-30T08:52:53;9.73;;;5.40;;
68212;SDS011;55035;47.792;8.724;2023-04-30T08:55:20;9.30;;;4.55;;
68212;SDS011;55035;47.792;8.724;2023-04-30T08:57:47;9.13;;;5.10;;
68212;SDS011;55035;47.792;8.724;2023-04-30T09:00:14;10.07;;;4.90;;
68212;SDS011;55035;47.792;8.724;2023-04-30T09:02:40;10.73;;;5.22;;
68212;SDS011;55035;47.792;8.724;2023-04-30T09:05:09;9.25;;;4.78;;
68212;SDS011;55035;47.792;8.724;2023-04-30T09:07:37;10.15;;;5.03;;
68212;SDS011;55035;47.792;8.724;2023-04-30T09:10:07;10.07;;;5.07;;
68212;SDS011;55035;47.792;8.724;2023-04-30T09:12:39;10.77;;;4.60;;
68212;SDS011;55035;47.792;8.724;2023-04-30T09:15:08;9.48;;;4.57;;
68212;SDS011;55035;47.792;8.724;2023-04-30T09:17:36;9.48;;;5.10;;
68212;SDS011;55035;47.792;8.724;2023-04-30T09:20:06;8.80;;;4.50;;
68212;SDS011;55035;47.792;8.724;2023-04-30T09:22:34;8.63;;;4.40;;
68212;SDS011;55035;47.792;8.724;2023-04-30T09:25:01;8.40;;;4.23;;
68212;SDS011;55035;47.792;8.724;2023-04-30T09:27:30;8.85;;;4.45;;
68212;SDS011;55035;47.792;8.724;2023-04-30T09:29:57;8.32;;;4.40;;
68212;SDS011;55035;47.792;8.724;2023-04-30T09:32:23;8.73;;;4.72;;
68212;SDS011;55035;47.792;8.724;2023-04-30T09:34:54;9.27;;;4.50;;
68212;SDS011;55035;47.792;8.724;2023-04-30T09:37:21;8.33;;;4.70;;
68212;SDS011;55035;47.792;8.724;2023-04-30T09:39:48;8.27;;;4.05;;
68212;SDS011;55035;47.792;8.724;2023-04-30T09:42:16;8.48;;;4.50;;
68212;SDS011;55035;47.792;8.724;2023-04-30T09:44:45;9.32;;;4.20;;
68212;SDS011;55035;47.792;8.724;2023-04-30T09:47:12;9.63;;;5.00;;
68212;SDS011;55035;47.792;8.724;2023-04-30T09:49:40;8.23;;;4.30;;
68212;SDS011;55035;47.792;8.724;2023-04-30T09:52:07;8.75;;;4.57;;
68212;SDS011;55035;47.792;8.724;2023-04-30T09:54:34;8.52;;;4.10;;
68212;SDS011;55035;47.792;8.724;2023-04-30T09:59:29;7.82;;;3.95;;
68212;SDS011;55035;47.792;8.724;2023-04-30T18:35:48;18.70;;;10.65;;
68212;SDS011;55035;47.792;8.724;2023-04-30T18:38:15;19.63;;;10.35;;
68212;SDS011;55035;47.792;8.724;2023-04-30T18:40:43;33.58;;;18.33;;
68212;SDS011;55035;47.792;8.724;2023-04-30T18:43:09;13.10;;;7.43;;
68212;SDS011;55035;47.792;8.724;2023-04-30T18:45:38;12.80;;;7.22;;
68212;SDS011;55035;47.792;8.724;2023-04-30T18:48:05;10.95;;;6.75;;
68212;SDS011;55035;47.792;8.724;2023-04-30T18:50:32;8.60;;;4.63;;
68212;SDS011;55035;47.792;8.724;2023-04-30T18:53:00;7.57;;;3.88;;
68212;SDS011;55035;47.792;8.724;2023-04-30T18:55:27;8.70;;;4.07;;
68212;SDS011;55035;47.792;8.724;2023-04-30T18:57:54;7.50;;;3.78;;
68212;SDS011;55035;47.792;8.724;2023-04-30T19:00:21;8.38;;;4.53;;
68212;SDS011;55035;47.792;8.724;2023-04-30T19:02:48;8.18;;;3.45;;
68212;SDS011;55035;47.792;8.724;2023-04-30T19:05:15;9.52;;;4.47;;
68212;SDS011;55035;47.792;8.724;2023-04-30T19:07:42;15.17;;;6.60;;
68212;SDS011;55035;47.792;8.724;2023-04-30T19:10:11;9.23;;;4.70;;
68212;SDS011;55035;47.792;8.724;2023-04-30T19:12:38;8.35;;;4.05;;
68212;SDS011;55035;47.792;8.724;2023-04-30T19:15:08;7.90;;;3.70;;
68212;SDS011;55035;47.792;8.724;2023-04-30T19:17:37;9.43;;;4.03;;
68212;SDS011;55035;47.792;8.724;2023-04-30T19:20:04;8.53;;;3.80;;
68212;SDS011;55035;47.792;8.724;2023-04-30T19:22:32;7.80;;;4.10;;
68212;SDS011;55035;47.792;8.724;2023-04-30T19:25:00;7.20;;;3.78;;
68212;SDS011;55035;47.792;8.724;2023-04-30T19:27:28;7.22;;;3.63;;
68212;SDS011;55035;47.792;8.724;2023-04-30T19:29:55;9.50;;;4.00;;
68212;SDS011;55035;47.792;8.724;2023-04-30T19:32:22;8.77;;;3.87;;
68212;SDS011;55035;47.792;8.724;2023-04-30T19:34:49;7.30;;;3.50;;
68212;SDS011;55035;47.792;8.724;2023-04-30T19:37:17;8.75;;;4.40;;
68212;SDS011;55035;47.792;8.724;2023-04-30T19:39:44;8.98;;;4.15;;
68212;SDS011;55035;47.792;8.724;2023-04-30T19:42:13;8.40;;;4.68;;
68212;SDS011;55035;47.792;8.724;2023-04-30T19:44:43;8.33;;;4.43;;
68212;SDS011;55035;47.792;8.724;2023-04-30T19:47:11;8.10;;;4.30;;
68212;SDS011;55035;47.792;8.724;2023-04-30T19:49:39;9.05;;;4.22;;
68212;SDS011;55035;47.792;8.724;2023-04-30T19:52:08;7.78;;;3.65;;
68212;SDS011;55035;47.792;8.724;2023-04-30T19:54:35;7.55;;;3.88;;
68212;SDS011;55035;47.792;8.724;2023-04-30T19:57:02;7.27;;;3.63;;
68212;SDS011;55035;47.792;8.724;2023-04-30T19:59:29;8.60;;;3.95;;
68212;SDS011;55035;47.792;8.724;2023-04-30T20:01:57;7.28;;;3.72;;
68212;SDS011;55035;47.792;8.724;2023-04-30T20:04:25;7.78;;;3.83;;
68212;SDS011;55035;47.792;8.724;2023-04-30T20:06:52;7.57;;;3.53;;
68212;SDS011;55035;47.792;8.724;2023-04-30T20:09:21;7.93;;;3.70;;
68212;SDS011;55035;47.792;8.724;2023-04-30T20:11:48;8.25;;;3.80;;
68212;SDS011;55035;47.792;8.724;2023-04-30T20:14:16;8.20;;;4.25;;
68212;SDS011;55035;47.792;8.724;2023-04-30T20:16:43;18.83;;;6.53;;
68212;SDS011;55035;47.792;8.724;2023-04-30T20:19:13;9.05;;;4.05;;
68212;SDS011;55035;47.792;8.724;2023-04-30T20:21:41;9.77;;;4.20;;
68212;SDS011;55035;47.792;8.724;2023-04-30T20:24:08;13.30;;;5.15;;
68212;SDS011;55035;47.792;8.724;2023-04-30T20:26:35;27.35;;;9.55;;
68212;SDS011;55035;47.792;8.724;2023-04-30T20:29:02;14.77;;;6.10;;
68212;SDS011;55035;47.792;8.724;2023-04-30T20:31:29;9.50;;;5.07;;
68212;SDS011;55035;47.792;8.724;2023-04-30T20:33:58;8.80;;;4.87;;
68212;SDS011;55035;47.792;8.724;2023-04-30T20:36:26;7.50;;;3.65;;
68212;SDS011;55035;47.792;8.724;2023-04-30T20:38:57;8.40;;;3.50;;
68212;SDS011;55035;47.792;8.724;2023-04-30T20:41:23;7.72;;;3.50;;
68212;SDS011;55035;47.792;8.724;2023-04-30T20:43:51;7.85;;;3.67;;
68212;SDS011;55035;47.792;8.724;2023-04-30T20:46:19;8.40;;;4.40;;
68212;SDS011;55035;47.792;8.724;2023-04-30T20:48:48;9.50;;;3.97;;
68212;SDS011;55035;47.792;8.724;2023-04-30T20:51:15;10.77;;;4.63;;
68212;SDS011;55035;47.792;8.724;2023-04-30T20:53:44;10.70;;;5.63;;
68212;SDS011;55035;47.792;8.724;2023-04-30T20:56:10;11.13;;;6.25;;
68212;SDS011;55035;47.792;8.724;2023-04-30T20:58:38;11.17;;;6.20;;
68212;SDS011;55035;47.792;8.724;2023-04-30T21:01:07;12.15;;;6.78;;
68212;SDS011;55035;47.792;8.724;2023-04-30T21:03:34;10.00;;;5.00;;
68212;SDS011;55035;47.792;8.724;2023-04-30T21:06:01;12.48;;;5.90;;
68212;SDS011;55035;47.792;8.724;2023-04-30T21:08:28;12.02;;;5.60;;
68212;SDS011;55035;47.792;8.724;2023-04-30T21:10:56;10.50;;;4.50;;
68212;SDS011;55035;47.792;8.724;2023-04-30T21:13:23;9.32;;;4.65;;
68212;SDS011;55035;47.792;8.724;2023-04-30T21:15:51;15.55;;;6.38;;
68212;SDS011;55035;47.792;8.724;2023-04-30T21:18:17;11.55;;;5.18;;
68212;SDS011;55035;47.792;8.724;2023-04-30T21:20:44;13.88;;;6.38;;
68212;SDS011;55035;47.792;8.724;2023-04-30T21:23:11;10.33;;;4.80;;
68212;SDS011;55035;47.792;8.724;2023-04-30T21:25:39;9.45;;;4.60;;
68212;SDS011;55035;47.792;8.724;2023-04-30T21:28:07;9.18;;;4.75;;
68212;SDS011;55035;47.792;8.724;2023-04-30T21:30:34;10.25;;;4.80;;
68212;SDS011;55035;47.792;8.724;2023-04-30T21:33:01;8.75;;;4.45;;
68212;SDS011;55035;47.792;8.724;2023-04-30T21:35:29;10.63;;;4.43;;
68212;SDS011;55035;47.792;8.724;2023-04-30T21:37:57;10.38;;;4.30;;
68212;SDS011;55035;47.792;8.724;2023-04-30T21:40:24;8.07;;;4.10;;
68212;SDS011;55035;47.792;8.724;2023-04-30T21:42:50;8.07;;;4.15;;
68212;SDS011;55035;47.792;8.724;2023-04-30T21:45:19;7.68;;;4.00;;
68212;SDS011;55035;47.792;8.724;2023-04-30T21:47:46;9.80;;;4.13;;
68212;SDS011;55035;47.792;8.724;2023-04-30T21:50:13;9.18;;;4.47;;
68212;SDS011;55035;47.792;8.724;2023-04-30T21:52:41;8.35;;;4.22;;
68212;SDS011;55035;47.792;8.724;2023-04-30T21:55:08;9.50;;;4.47;;
68212;SDS011;55035;47.792;8.724;2023-04-30T21:57:35;9.43;;;4.30;;
68212;SDS011;55035;47.792;8.724;2023-04-30T22:00:02;8.03;;;4.20;;
68212;SDS011;55035;47.792;8.724;2023-04-30T22:02:33;11.75;;;4.20;;
68212;SDS011;55035;47.792;8.724;2023-04-30T22:05:00;9.60;;;4.60;;
68212;SDS011;55035;47.792;8.724;2023-04-30T22:07:27;8.57;;;4.30;;
68212;SDS011;55035;47.792;8.724;2023-04-30T22:09:54;8.95;;;4.53;;
68212;SDS011;55035;47.792;8.724;2023-04-30T22:12:21;8.80;;;4.00;;
68212;SDS011;55035;47.792;8.724;2023-04-30T22:14:51;8.93;;;3.72;;
68212;SDS011;55035;47.792;8.724;2023-04-30T22:17:18;7.80;;;3.70;;
68212;SDS011;55035;47.792;8.724;2023-04-30T22:19:46;8.18;;;3.75;;
68212;SDS011;55035;47.792;8.724;2023-04-30T22:22:13;7.82;;;3.63;;
68212;SDS011;55035;47.792;8.724;2023-04-30T22:24:40;8.47;;;3.93;;
68212;SDS011;55035;47.792;8.724;2023-04-30T22:27:07;7.20;;;3.35;;
68212;SDS011;55035;47.792;8.724;2023-04-30T22:29:35;10.07;;;3.78;;
68212;SDS011;55035;47.792;8.724;2023-04-30T22:32:01;8.13;;;3.88;;
68212;SDS011;55035;47.792;8.724;2023-04-30T22:34:28;7.90;;;3.92;;
68212;SDS011;55035;47.792;8.724;2023-04-30T22:36:57;8.00;;;3.60;;
68212;SDS011;55035;47.792;8.724;2023-04-30T22:39:24;7.55;;;3.60;;
68212;SDS011;55035;47.792;8.724;2023-04-30T22:41:50;9.23;;;3.67;;
68212;SDS011;55035;47.792;8.724;2023-04-30T22:44:18;7.05;;;3.40;;
68212;SDS011;55035;47.792;8.724;2023-04-30T22:46:45;7.68;;;3.65;;
68212;SDS011;55035;47.792;8.724;2023-04-30T22:49:12;7.03;;;3.43;;
68212;SDS011;55035;47.792;8.724;2023-04-30T22:51:40;8.00;;;3.60;;
68212;SDS011;55035;47.792;8.724;2023-04-30T22:54:09;8.15;;;3.67;;
68212;SDS011;55035;47.792;8.724;2023-04-30T22:56:36;7.90;;;3.80;;
68212;SDS011;55035;47.792;8.724;2023-04-30T22:59:05;8.80;;;4.00;;
68212;SDS011;55035;47.792;8.724;2023-04-30T23:01:31;7.70;;;3.77;;
68212;SDS011;55035;47.792;8.724;2023-04-30T23:03:59;8.20;;;3.60;;
68212;SDS011;55035;47.792;8.724;2023-04-30T23:06:27;7.82;;;4.18;;
68212;SDS011;55035;47.792;8.724;2023-04-30T23:08:54;8.43;;;4.00;;
68212;SDS011;55035;47.792;8.724;2023-04-30T23:11:22;8.35;;;4.38;;
68212;SDS011;55035;47.792;8.724;2023-04-30T23:13:49;7.67;;;3.73;;
68212;SDS011;55035;47.792;8.724;2023-04-30T23:16:16;8.40;;;3.65;;